Time;durP1;ratioP1;P1;durP2;ratioP2;P2;SDS_P1;SDS_P2;PMS_P1;PMS_P2;Temp;Humidity;BMP_temperature;BMP_pressure;BME280_temperature;BME280_humidity;BME280_pressure;Samples;Min_cycle;Max_cycle;Signal;HPM_P1;HPM_P2
2024/02/04 00:00:13;;;;;;;6.87;1.93;;;;;;;;;;5034607;28;20520;-64
2024/02/04 00:02:40;;;;;;;5.37;2.70;;;;;;;;;;5034209;28;20477;-64
2024/02/04 00:05:07;;;;;;;2.83;1.93;;;;;;;;;;5034141;28;20481;-64
2024/02/04 00:07:35;;;;;;;4.23;2.10;;;;;;;;;;5034047;28;20794;-64
2024/02/04 00:10:03;;;;;;;6.97;2.40;;;;;;;;;;5034001;28;20446;-64
2024/02/04 00:12:30;;;;;;;7.10;2.40;;;;;;;;;;5033889;28;20476;-64
2024/02/04 00:14:57;;;;;;;3.20;1.60;;;;;;;;;;5034151;28;20536;-63
2024/02/04 00:17:29;;;;;;;6.13;2.27;;;;;;;;;;5033989;28;20798;-64
2024/02/04 00:19:56;;;;;;;6.63;2.73;;;;;;;;;;5033925;28;20457;-63
2024/02/04 00:22:23;;;;;;;10.03;2.50;;;;;;;;;;5033859;28;20878;-64
2024/02/04 00:27:34;;;;;;;7.17;2.17;;;;;;;;;;5090414;27;20574;-65
2024/02/04 00:30:01;;;;;;;7.57;2.70;;;;;;;;;;5090456;28;20450;-65
2024/02/04 00:32:28;;;;;;;9.53;2.60;;;;;;;;;;5090490;28;20538;-65
2024/02/04 00:34:55;;;;;;;5.30;2.03;;;;;;;;;;5090439;28;20854;-64
2024/02/04 00:37:22;;;;;;;4.80;1.90;;;;;;;;;;5090244;28;20538;-65
2024/02/04 00:39:49;;;;;;;8.27;2.17;;;;;;;;;;5090471;28;20439;-65
2024/02/04 00:42:16;;;;;;;4.30;2.03;;;;;;;;;;5090454;28;20525;-65
2024/02/04 00:44:44;;;;;;;8.53;2.03;;;;;;;;;;5090351;28;20484;-64
2024/02/04 00:47:13;;;;;;;8.83;2.27;;;;;;;;;;5090141;28;20562;-65
2024/02/04 00:49:40;;;;;;;4.70;1.90;;;;;;;;;;5090118;28;20442;-65
2024/02/04 00:52:07;;;;;;;5.20;1.90;;;;;;;;;;5090015;28;20449;-65
2024/02/04 00:54:34;;;;;;;5.60;2.70;;;;;;;;;;5090265;28;20533;-65
2024/02/04 00:57:01;;;;;;;9.03;2.47;;;;;;;;;;5090130;28;20538;-65
2024/02/04 00:59:28;;;;;;;4.03;1.53;;;;;;;;;;5089812;28;21032;-65
2024/02/04 01:01:56;;;;;;;13.10;2.50;;;;;;;;;;5089981;28;20545;-65
2024/02/04 01:04:23;;;;;;;10.60;2.70;;;;;;;;;;5089872;28;20457;-64
2024/02/04 01:06:50;;;;;;;8.23;2.70;;;;;;;;;;5089530;28;21063;-65
2024/02/04 01:09:17;;;;;;;9.17;2.17;;;;;;;;;;5089873;28;20534;-65
2024/02/04 01:11:44;;;;;;;6.70;2.07;;;;;;;;;;5089866;28;20453;-64
2024/02/04 01:14:11;;;;;;;6.73;2.10;;;;;;;;;;5089752;28;20511;-65
2024/02/04 01:16:38;;;;;;;15.33;2.73;;;;;;;;;;5089653;28;20537;-65
2024/02/04 01:19:06;;;;;;;9.77;2.50;;;;;;;;;;5089548;28;20906;-65
2024/02/04 01:21:33;;;;;;;8.23;2.20;;;;;;;;;;5089750;28;20538;-65
2024/02/04 01:24:00;;;;;;;8.20;2.47;;;;;;;;;;5089619;28;20453;-65
2024/02/04 01:26:27;;;;;;;10.20;2.67;;;;;;;;;;5089264;28;20598;-64
2024/02/04 01:28:54;;;;;;;6.53;2.10;;;;;;;;;;5089527;28;20871;-64
2024/02/04 01:31:21;;;;;;;3.47;1.70;;;;;;;;;;5089407;28;20814;-65
2024/02/04 01:33:48;;;;;;;4.40;1.83;;;;;;;;;;5089282;28;20496;-65
2024/02/04 01:36:16;;;;;;;9.60;2.70;;;;;;;;;;5089379;28;20533;-65
2024/02/04 01:38:43;;;;;;;5.50;1.93;;;;;;;;;;5076839;28;20886;-65
2024/02/04 01:41:10;;;;;;;6.30;2.37;;;;;;;;;;5075740;28;20449;-65
2024/02/04 01:43:37;;;;;;;7.07;2.10;;;;;;;;;;5075582;28;20443;-65
2024/02/04 01:46:04;;;;;;;11.07;2.10;;;;;;;;;;5075492;28;20477;-65
2024/02/04 01:48:31;;;;;;;7.30;1.60;;;;;;;;;;5075537;28;20500;-65
2024/02/04 01:50:59;;;;;;;12.03;2.57;;;;;;;;;;5075700;28;20450;-65
2024/02/04 01:53:27;;;;;;;9.50;2.13;;;;;;;;;;5075561;28;20894;-65
2024/02/04 01:55:55;;;;;;;6.60;2.23;;;;;;;;;;5075527;28;20455;-65
2024/02/04 01:58:22;;;;;;;6.93;2.30;;;;;;;;;;5075401;28;20444;-65
2024/02/04 02:00:50;;;;;;;11.43;3.23;;;;;;;;;;5075231;28;20447;-65
2024/02/04 02:03:18;;;;;;;10.00;2.17;;;;;;;;;;5075431;28;20864;-65
2024/02/04 02:05:45;;;;;;;6.40;2.20;;;;;;;;;;5075325;28;20466;-65
2024/02/04 02:08:12;;;;;;;8.17;2.13;;;;;;;;;;5075300;28;20450;-65
2024/02/04 02:10:42;;;;;;;9.53;2.67;;;;;;;;;;5075137;28;20466;-64
2024/02/04 02:13:12;;;;;;;6.17;1.80;;;;;;;;;;5075584;28;20449;-65
2024/02/04 02:15:42;;;;;;;9.13;2.80;;;;;;;;;;5074945;28;20465;-65
2024/02/04 02:18:12;;;;;;;9.13;2.53;;;;;;;;;;5074901;28;21021;-65
2024/02/04 02:20:43;;;;;;;8.23;1.90;;;;;;;;;;5075033;28;20450;-65
2024/02/04 02:23:13;;;;;;;9.20;2.00;;;;;;;;;;5074915;28;20443;-65
2024/02/04 02:25:42;;;;;;;6.53;2.40;;;;;;;;;;5074522;28;20890;-64
2024/02/04 02:28:09;;;;;;;9.20;2.30;;;;;;;;;;5074972;28;20542;-65
2024/02/04 02:30:36;;;;;;;6.77;2.40;;;;;;;;;;5074982;28;20970;-65
2024/02/04 02:33:07;;;;;;;7.10;1.90;;;;;;;;;;5074782;28;20543;-65
2024/02/04 02:35:34;;;;;;;11.37;2.20;;;;;;;;;;5074647;28;20440;-65
2024/02/04 02:38:06;;;;;;;9.17;2.43;;;;;;;;;;5074604;28;20530;-64
2024/02/04 02:40:38;;;;;;;4.63;2.23;;;;;;;;;;5074515;28;20450;-65
2024/02/04 02:43:07;;;;;;;7.50;2.77;;;;;;;;;;5074684;28;20577;-65
2024/02/04 02:45:34;;;;;;;8.37;3.90;;;;;;;;;;5074562;28;20455;-65
2024/02/04 02:48:02;;;;;;;4.47;1.70;;;;;;;;;;5074440;28;20562;-64
2024/02/04 02:50:29;;;;;;;10.90;2.30;;;;;;;;;;5073397;28;20447;-64
2024/02/04 02:52:56;;;;;;;4.77;1.73;;;;;;;;;;5074280;28;20548;-65
2024/02/04 02:55:23;;;;;;;6.90;2.30;;;;;;;;;;5074435;28;20554;-64
2024/02/04 02:57:50;;;;;;;6.63;2.33;;;;;;;;;;5074387;28;20453;-65
2024/02/04 03:00:19;;;;;;;8.80;2.30;;;;;;;;;;5074183;28;20524;-65
2024/02/04 03:02:46;;;;;;;5.10;2.30;;;;;;;;;;5073980;28;20978;-65
2024/02/04 03:05:14;;;;;;;2.10;1.33;;;;;;;;;;5073971;28;20534;-65
2024/02/04 03:07:41;;;;;;;6.20;2.20;;;;;;;;;;5073909;28;20537;-64
2024/02/04 03:10:10;;;;;;;7.07;1.83;;;;;;;;;;5074046;28;20448;-65
2024/02/04 03:12:37;;;;;;;3.63;1.83;;;;;;;;;;5074020;28;20535;-65
2024/02/04 03:15:04;;;;;;;5.20;2.37;;;;;;;;;;5073888;28;20446;-65
2024/02/04 03:17:32;;;;;;;2.90;1.97;;;;;;;;;;5073825;28;20535;-65
2024/02/04 03:19:59;;;;;;;6.57;1.87;;;;;;;;;;5073586;28;20443;-65
2024/02/04 03:22:26;;;;;;;5.83;2.00;;;;;;;;;;5074209;28;20494;-65
2024/02/04 03:24:53;;;;;;;5.50;2.17;;;;;;;;;;5073819;28;20513;-65
2024/02/04 03:27:20;;;;;;;8.87;2.30;;;;;;;;;;5073341;28;21061;-64
2024/02/04 03:29:47;;;;;;;7.13;2.13;;;;;;;;;;5073479;28;21033;-65
2024/02/04 03:32:14;;;;;;;6.50;2.53;;;;;;;;;;5073534;28;20447;-64
2024/02/04 03:34:44;;;;;;;9.23;2.73;;;;;;;;;;5073422;28;20531;-65
2024/02/04 03:37:11;;;;;;;4.53;2.03;;;;;;;;;;5073528;28;20486;-65
2024/02/04 03:39:38;;;;;;;4.67;2.20;;;;;;;;;;5073511;28;20882;-65
2024/02/04 03:42:05;;;;;;;10.27;2.40;;;;;;;;;;5073433;28;20535;-65
2024/02/04 03:44:32;;;;;;;5.63;2.33;;;;;;;;;;5073366;28;20455;-65
2024/02/04 03:46:59;;;;;;;4.93;2.30;;;;;;;;;;5073253;28;20479;-65
2024/02/04 03:49:26;;;;;;;5.20;2.30;;;;;;;;;;5073411;28;20531;-65
2024/02/04 03:51:54;;;;;;;7.00;2.93;;;;;;;;;;5073427;28;20530;-64
2024/02/04 03:54:21;;;;;;;8.07;2.60;;;;;;;;;;5073257;28;20447;-65
2024/02/04 03:56:48;;;;;;;9.57;2.77;;;;;;;;;;5073074;28;20447;-64
2024/02/04 03:59:15;;;;;;;3.37;2.93;;;;;;;;;;5073202;28;20531;-64
2024/02/04 04:01:42;;;;;;;5.80;2.47;;;;;;;;;;5072791;28;20538;-65
2024/02/04 04:04:10;;;;;;;8.90;2.70;;;;;;;;;;5073290;28;20439;-65
2024/02/04 04:06:37;;;;;;;6.63;3.00;;;;;;;;;;5072909;28;20986;-65
2024/02/04 04:09:05;;;;;;;4.67;2.50;;;;;;;;;;5073161;28;20840;-64
2024/02/04 04:11:32;;;;;;;8.07;2.80;;;;;;;;;;5073063;28;20444;-64
2024/02/04 04:13:59;;;;;;;5.70;3.00;;;;;;;;;;5072941;28;20534;-64
2024/02/04 04:16:26;;;;;;;8.30;2.83;;;;;;;;;;5072849;28;20536;-65
2024/02/04 04:18:53;;;;;;;5.20;2.20;;;;;;;;;;5073051;28;20528;-65
2024/02/04 04:21:20;;;;;;;7.80;2.57;;;;;;;;;;5073031;28;20447;-64
2024/02/04 04:23:47;;;;;;;7.43;2.70;;;;;;;;;;5072921;28;20542;-65
2024/02/04 04:26:15;;;;;;;3.13;2.67;;;;;;;;;;5072626;28;21058;-64
2024/02/04 04:28:42;;;;;;;7.20;3.00;;;;;;;;;;5072756;28;20485;-64
2024/02/04 04:31:09;;;;;;;4.40;2.87;;;;;;;;;;5072964;28;20530;-64
2024/02/04 04:33:37;;;;;;;4.60;1.97;;;;;;;;;;5072958;28;20538;-65
2024/02/04 04:36:04;;;;;;;6.50;2.20;;;;;;;;;;5072906;28;20475;-64
2024/02/04 04:38:31;;;;;;;6.17;2.70;;;;;;;;;;5072786;28;20454;-64
2024/02/04 04:40:58;;;;;;;9.53;2.70;;;;;;;;;;5072679;28;20443;-64
2024/02/04 04:43:27;;;;;;;6.57;2.50;;;;;;;;;;5072654;28;20860;-65
2024/02/04 04:45:54;;;;;;;5.20;2.57;;;;;;;;;;5072805;28;20447;-65
2024/02/04 04:48:20;;;;;;;7.50;2.90;;;;;;;;;;5072658;28;20920;-65
2024/02/04 04:50:47;;;;;;;4.03;2.50;;;;;;;;;;5072741;28;20444;-65
2024/02/04 04:53:14;;;;;;;5.37;2.53;;;;;;;;;;5072638;28;20530;-64
2024/02/04 04:55:41;;;;;;;4.97;2.23;;;;;;;;;;5072586;28;20883;-65
2024/02/04 04:58:08;;;;;;;7.27;2.77;;;;;;;;;;5072468;28;20440;-65
2024/02/04 05:00:36;;;;;;;5.10;2.13;;;;;;;;;;5072668;28;20892;-65
2024/02/04 05:03:03;;;;;;;7.07;2.47;;;;;;;;;;5072648;28;20534;-64
2024/02/04 05:05:30;;;;;;;7.33;2.87;;;;;;;;;;5072512;28;20543;-64
2024/02/04 05:07:57;;;;;;;4.37;1.70;;;;;;;;;;5072204;28;21056;-64
2024/02/04 05:10:24;;;;;;;3.13;1.63;;;;;;;;;;5072346;28;20450;-65
2024/02/04 05:12:51;;;;;;;10.03;2.70;;;;;;;;;;5073938;28;20442;-64
2024/02/04 05:15:18;;;;;;;4.83;2.40;;;;;;;;;;5076334;28;20584;-65
2024/02/04 05:17:46;;;;;;;6.57;1.90;;;;;;;;;;5076234;28;20478;-65
2024/02/04 05:20:13;;;;;;;5.47;2.17;;;;;;;;;;5076151;28;20533;-64
2024/02/04 05:22:40;;;;;;;2.63;1.97;;;;;;;;;;5075978;28;20531;-65
2024/02/04 05:25:08;;;;;;;7.17;2.53;;;;;;;;;;5075798;28;20705;-65
2024/02/04 05:27:36;;;;;;;2.50;1.83;;;;;;;;;;5076114;28;20479;-65
2024/02/04 05:30:03;;;;;;;9.67;2.30;;;;;;;;;;5075990;28;20483;-65
2024/02/04 05:32:30;;;;;;;8.93;2.33;;;;;;;;;;5075769;28;20962;-64
2024/02/04 05:34:58;;;;;;;3.47;1.97;;;;;;;;;;5075816;28;20535;-64
2024/02/04 05:37:25;;;;;;;5.37;2.63;;;;;;;;;;5075646;28;21127;-65
2024/02/04 05:39:52;;;;;;;9.33;1.93;;;;;;;;;;5075817;28;20514;-64
2024/02/04 05:42:19;;;;;;;8.57;1.80;;;;;;;;;;5075798;28;20443;-65
2024/02/04 05:44:46;;;;;;;4.80;1.97;;;;;;;;;;5075730;28;20546;-64
2024/02/04 05:47:13;;;;;;;2.67;2.33;;;;;;;;;;5075572;28;20574;-64
2024/02/04 05:49:40;;;;;;;5.43;1.90;;;;;;;;;;5075538;28;20447;-64
2024/02/04 05:52:08;;;;;;;4.17;2.27;;;;;;;;;;5075473;28;20444;-65
2024/02/04 05:54:38;;;;;;;4.63;2.13;;;;;;;;;;5075608;28;20534;-64
2024/02/04 05:57:06;;;;;;;10.30;2.87;;;;;;;;;;5075405;28;20447;-65
2024/02/04 05:59:33;;;;;;;3.70;1.77;;;;;;;;;;5075407;28;20450;-64
2024/02/04 06:02:00;;;;;;;4.10;2.00;;;;;;;;;;5075379;28;20443;-64
2024/02/04 06:04:27;;;;;;;5.67;2.00;;;;;;;;;;5075188;28;20522;-65
2024/02/04 06:06:54;;;;;;;4.10;2.50;;;;;;;;;;5075349;28;20474;-64
2024/02/04 06:09:22;;;;;;;7.27;2.53;;;;;;;;;;5075311;28;20482;-64
2024/02/04 06:11:49;;;;;;;2.07;1.70;;;;;;;;;;5075256;28;20884;-64
2024/02/04 06:14:16;;;;;;;8.60;2.13;;;;;;;;;;5075122;28;20543;-64
2024/02/04 06:16:42;;;;;;;2.60;1.77;;;;;;;;;;5075095;28;20556;-64
2024/02/04 06:19:12;;;;;;;7.10;2.60;;;;;;;;;;5075010;28;20938;-64
2024/02/04 06:21:40;;;;;;;6.37;1.87;;;;;;;;;;5074834;28;20447;-65
2024/02/04 06:24:07;;;;;;;4.23;1.73;;;;;;;;;;5074911;28;20450;-64
2024/02/04 06:26:35;;;;;;;7.13;1.90;;;;;;;;;;5074787;28;20471;-64
2024/02/04 06:29:02;;;;;;;2.80;2.07;;;;;;;;;;5074696;28;20919;-64
2024/02/04 06:31:29;;;;;;;10.00;2.57;;;;;;;;;;5074724;28;20440;-65
2024/02/04 06:33:56;;;;;;;3.67;1.50;;;;;;;;;;5074618;28;20525;-64
2024/02/04 06:36:22;;;;;;;9.37;3.10;;;;;;;;;;5074831;28;20475;-65
2024/02/04 06:38:49;;;;;;;4.03;1.77;;;;;;;;;;5074744;28;20534;-64
2024/02/04 06:41:16;;;;;;;3.20;2.50;;;;;;;;;;5074643;28;20874;-64
2024/02/04 06:43:46;;;;;;;3.87;2.00;;;;;;;;;;5074494;28;20447;-64
2024/02/04 06:46:13;;;;;;;3.13;1.77;;;;;;;;;;5074383;28;21059;-65
2024/02/04 06:48:39;;;;;;;3.53;2.10;;;;;;;;;;5074517;28;20562;-64
2024/02/04 06:51:06;;;;;;;5.93;1.97;;;;;;;;;;5074486;28;20539;-65
2024/02/04 06:53:33;;;;;;;2.87;1.47;;;;;;;;;;5074427;28;20532;-64
2024/02/04 06:56:00;;;;;;;5.53;2.53;;;;;;;;;;5074312;28;20448;-65
2024/02/04 06:58:27;;;;;;;7.70;2.90;;;;;;;;;;5074188;28;21001;-64
2024/02/04 07:00:56;;;;;;;3.00;2.37;;;;;;;;;;5074090;28;20475;-65
2024/02/04 07:03:23;;;;;;;2.80;1.97;;;;;;;;;;5074270;28;20485;-65
2024/02/04 07:05:50;;;;;;;3.97;2.20;;;;;;;;;;5074081;28;20534;-65
2024/02/04 07:08:17;;;;;;;6.40;2.73;;;;;;;;;;5074019;28;20974;-64
2024/02/04 07:10:44;;;;;;;7.03;3.13;;;;;;;;;;5074019;28;20534;-64
2024/02/04 07:13:11;;;;;;;4.50;2.50;;;;;;;;;;5073893;28;20502;-65
2024/02/04 07:15:38;;;;;;;5.57;2.70;;;;;;;;;;5074101;28;20446;-65
2024/02/04 07:18:06;;;;;;;4.20;2.40;;;;;;;;;;5073993;28;20532;-65
2024/02/04 07:20:33;;;;;;;4.47;2.83;;;;;;;;;;5073814;28;20890;-65
2024/02/04 07:23:00;;;;;;;4.30;3.30;;;;;;;;;;5073837;28;20857;-65
2024/02/04 07:25:27;;;;;;;6.13;2.13;;;;;;;;;;5073602;28;20550;-65
2024/02/04 07:27:54;;;;;;;7.20;3.20;;;;;;;;;;5073471;28;20514;-64
2024/02/04 07:30:21;;;;;;;6.17;2.67;;;;;;;;;;5073834;28;20501;-65
2024/02/04 07:32:48;;;;;;;7.07;3.10;;;;;;;;;;5073631;28;20447;-64
2024/02/04 07:35:17;;;;;;;6.27;2.40;;;;;;;;;;5073118;28;20530;-65
2024/02/04 07:37:44;;;;;;;4.33;2.23;;;;;;;;;;5073499;28;20780;-65
2024/02/04 07:40:11;;;;;;;16.73;4.13;;;;;;;;;;5073234;28;20444;-65
2024/02/04 07:42:38;;;;;;;8.80;3.20;;;;;;;;;;5073329;28;20518;-65
2024/02/04 07:45:08;;;;;;;5.77;2.80;;;;;;;;;;5073499;28;20535;-65
2024/02/04 07:47:35;;;;;;;3.63;3.00;;;;;;;;;;5073422;28;20449;-65
2024/02/04 07:50:02;;;;;;;5.87;2.60;;;;;;;;;;5073373;28;20486;-64
2024/02/04 07:52:31;;;;;;;11.03;4.00;;;;;;;;;;5073233;28;20448;-64
2024/02/04 07:54:57;;;;;;;5.17;3.27;;;;;;;;;;5073119;28;20451;-65
2024/02/04 07:57:24;;;;;;;3.00;2.70;;;;;;;;;;5073576;28;20540;-65
2024/02/04 07:59:52;;;;;;;4.37;3.30;;;;;;;;;;5073248;28;20534;-65
2024/02/04 08:02:19;;;;;;;5.03;4.00;;;;;;;;;;5073194;28;20456;-65
2024/02/04 08:04:46;;;;;;;7.73;3.13;;;;;;;;;;5073056;28;20927;-64
2024/02/04 08:07:13;;;;;;;4.87;3.63;;;;;;;;;;5073041;28;20443;-65
2024/02/04 08:09:41;;;;;;;6.03;3.70;;;;;;;;;;5072827;28;20478;-65
2024/02/04 08:12:09;;;;;;;4.53;3.40;;;;;;;;;;5073111;28;20807;-65
2024/02/04 08:14:36;;;;;;;7.83;3.37;;;;;;;;;;5073134;28;20447;-64
2024/02/04 08:17:03;;;;;;;7.50;4.07;;;;;;;;;;5073005;28;20530;-64
2024/02/04 08:19:30;;;;;;;6.03;3.57;;;;;;;;;;5072991;28;20479;-64
2024/02/04 08:21:57;;;;;;;7.53;3.30;;;;;;;;;;5072766;28;20534;-65
2024/02/04 08:24:24;;;;;;;12.20;3.87;;;;;;;;;;5073086;28;20447;-65
2024/02/04 08:26:52;;;;;;;6.03;3.63;;;;;;;;;;5072653;28;20477;-65
2024/02/04 08:29:19;;;;;;;10.27;4.20;;;;;;;;;;5072673;28;21025;-64
2024/02/04 08:31:46;;;;;;;7.07;3.40;;;;;;;;;;5072861;28;20534;-65
2024/02/04 08:34:13;;;;;;;4.90;3.50;;;;;;;;;;5072807;28;20565;-65
2024/02/04 08:36:40;;;;;;;6.60;3.13;;;;;;;;;;5072599;28;21023;-65
2024/02/04 08:39:07;;;;;;;4.37;3.10;;;;;;;;;;5072882;28;20533;-65
2024/02/04 08:41:34;;;;;;;6.03;3.30;;;;;;;;;;5072765;28;20526;-65
2024/02/04 08:44:02;;;;;;;7.67;3.23;;;;;;;;;;5072707;28;20443;-65
2024/02/04 08:46:29;;;;;;;6.60;3.80;;;;;;;;;;5072663;28;20483;-65
2024/02/04 08:48:56;;;;;;;6.03;2.60;;;;;;;;;;5075784;28;20881;-65
2024/02/04 08:51:23;;;;;;;11.27;2.93;;;;;;;;;;5076548;28;20450;-65
2024/02/04 08:53:50;;;;;;;6.33;3.00;;;;;;;;;;5076769;28;20443;-65
2024/02/04 08:56:17;;;;;;;5.40;3.10;;;;;;;;;;5076736;28;20475;-65
2024/02/04 08:58:45;;;;;;;4.17;2.70;;;;;;;;;;5076598;28;20539;-65
2024/02/04 09:01:13;;;;;;;6.60;2.40;;;;;;;;;;5076263;28;21037;-65
2024/02/04 09:03:40;;;;;;;14.87;3.20;;;;;;;;;;5076329;28;20440;-65
2024/02/04 09:06:07;;;;;;;9.60;2.70;;;;;;;;;;5076302;28;20919;-65
2024/02/04 09:08:34;;;;;;;3.27;2.27;;;;;;;;;;5076343;28;20489;-65
2024/02/04 09:11:01;;;;;;;5.73;2.53;;;;;;;;;;5076346;28;20538;-65
2024/02/04 09:13:28;;;;;;;5.33;2.70;;;;;;;;;;5076237;28;20534;-65
2024/02/04 09:15:55;;;;;;;9.63;2.90;;;;;;;;;;5076189;28;20528;-65
2024/02/04 09:18:23;;;;;;;5.10;2.57;;;;;;;;;;5075953;28;20814;-65
2024/02/04 09:20:50;;;;;;;5.40;3.00;;;;;;;;;;5076275;28;20449;-65
2024/02/04 09:23:17;;;;;;;3.00;2.37;;;;;;;;;;5076221;28;20444;-65
2024/02/04 09:25:44;;;;;;;7.73;3.30;;;;;;;;;;5075753;28;20550;-65
2024/02/04 09:28:11;;;;;;;9.60;2.63;;;;;;;;;;5075754;28;20538;-65
2024/02/04 09:30:38;;;;;;;6.50;2.73;;;;;;;;;;5075782;28;20510;-65
2024/02/04 09:33:05;;;;;;;11.33;2.93;;;;;;;;;;5076045;28;20453;-65
2024/02/04 09:35:33;;;;;;;5.10;2.20;;;;;;;;;;5075871;28;20538;-65
2024/02/04 09:38:00;;;;;;;6.43;2.13;;;;;;;;;;5075880;28;20854;-65
2024/02/04 09:40:27;;;;;;;5.53;2.17;;;;;;;;;;5075861;28;20446;-65
2024/02/04 09:42:55;;;;;;;6.20;2.97;;;;;;;;;;5075669;28;20455;-65
2024/02/04 09:45:22;;;;;;;9.73;2.70;;;;;;;;;;5075532;28;20451;-65
2024/02/04 09:47:52;;;;;;;6.53;2.53;;;;;;;;;;5075736;28;20534;-65
2024/02/04 09:50:19;;;;;;;6.30;1.60;;;;;;;;;;5075551;28;20487;-65
2024/02/04 09:52:50;;;;;;;4.63;2.03;;;;;;;;;;5075592;28;20538;-65
2024/02/04 09:55:17;;;;;;;10.03;1.83;;;;;;;;;;5075593;28;20807;-65
2024/02/04 09:57:45;;;;;;;8.63;2.47;;;;;;;;;;5075269;28;20475;-65
2024/02/04 10:00:13;;;;;;;4.30;2.20;;;;;;;;;;5074987;28;20451;-65
2024/02/04 10:02:40;;;;;;;5.00;2.07;;;;;;;;;;5075442;28;20447;-65
2024/02/04 10:05:09;;;;;;;3.93;2.03;;;;;;;;;;5075503;28;20534;-65
2024/02/04 10:07:36;;;;;;;8.63;2.23;;;;;;;;;;5075252;28;20867;-65
2024/02/04 10:10:05;;;;;;;5.53;1.73;;;;;;;;;;5074906;28;20566;-65
2024/02/04 10:12:32;;;;;;;5.20;1.43;;;;;;;;;;5075051;28;20443;-65
2024/02/04 10:15:00;;;;;;;16.43;6.73;;;;;;;;;;5075240;28;20476;-65
2024/02/04 10:17:27;;;;;;;3.60;1.50;;;;;;;;;;5075207;28;20443;-65
2024/02/04 10:19:54;;;;;;;5.53;1.60;;;;;;;;;;5074998;28;20534;-65
2024/02/04 10:22:20;;;;;;;6.50;1.67;;;;;;;;;;5074958;28;20534;-65
2024/02/04 10:24:48;;;;;;;4.03;1.50;;;;;;;;;;5074953;28;20508;-65
2024/02/04 10:27:17;;;;;;;6.57;3.00;;;;;;;;;;5074495;28;20475;-65
2024/02/04 10:29:43;;;;;;;6.20;1.60;;;;;;;;;;5074806;28;20488;-65
2024/02/04 10:32:10;;;;;;;8.40;1.70;;;;;;;;;;5074806;28;20534;-65
2024/02/04 10:34:38;;;;;;;5.90;2.60;;;;;;;;;;5074910;28;20538;-65
2024/02/04 10:37:05;;;;;;;2.67;1.67;;;;;;;;;;5074762;28;20486;-65
2024/02/04 10:39:32;;;;;;;5.33;1.43;;;;;;;;;;5074581;28;20530;-65
2024/02/04 10:42:04;;;;;;;2.37;1.93;;;;;;;;;;5074842;28;20901;-65
2024/02/04 10:44:36;;;;;;;4.53;1.53;;;;;;;;;;5074524;28;21142;-65
2024/02/04 10:47:05;;;;;;;4.27;1.47;;;;;;;;;;5074540;28;20447;-65
2024/02/04 10:49:34;;;;;;;4.67;1.50;;;;;;;;;;5074282;28;20485;-65
2024/02/04 10:52:02;;;;;;;3.30;1.57;;;;;;;;;;5074279;28;20518;-65
2024/02/04 10:54:33;;;;;;;2.40;1.90;;;;;;;;;;5074543;28;20497;-65
2024/02/04 10:57:04;;;;;;;3.83;1.30;;;;;;;;;;5074382;28;20497;-65
2024/02/04 10:59:33;;;;;;;2.80;1.13;;;;;;;;;;5074135;28;21023;-65
2024/02/04 11:02:00;;;;;;;5.90;1.60;;;;;;;;;;5074097;28;20721;-65
2024/02/04 11:04:28;;;;;;;1.70;1.30;;;;;;;;;;5074012;28;21007;-65
2024/02/04 11:06:56;;;;;;;6.00;1.73;;;;;;;;;;5073945;28;20438;-65
2024/02/04 11:09:23;;;;;;;4.60;1.50;;;;;;;;;;5073862;28;20514;-65
2024/02/04 11:11:50;;;;;;;5.80;1.60;;;;;;;;;;5073486;28;20513;-65
2024/02/04 11:14:18;;;;;;;4.03;1.30;;;;;;;;;;5073893;28;20864;-65
2024/02/04 11:16:57;;;;;;;5.43;1.73;;;;;;;;;;5073827;28;20535;-65
2024/02/04 11:19:27;;;;;;;5.37;1.50;;;;;;;;;;5073952;28;20449;-65
2024/02/04 11:22:12;;;;;;;5.33;2.43;;;;;;;;;;5073602;28;21014;-65
2024/02/04 11:24:47;;;;;;;4.93;1.87;;;;;;;;;;5073774;28;20439;-65
2024/02/04 11:27:15;;;;;;;5.97;2.03;;;;;;;;;;5073313;28;20463;-65
2024/02/04 11:29:42;;;;;;;2.47;1.90;;;;;;;;;;5073468;28;20578;-65
2024/02/04 11:32:11;;;;;;;2.60;1.97;;;;;;;;;;5073716;28;20565;-66
2024/02/04 11:34:37;;;;;;;5.10;1.50;;;;;;;;;;5073839;28;20843;-65
2024/02/04 11:37:15;;;;;;;6.30;1.90;;;;;;;;;;5073451;28;20803;-65
2024/02/04 11:39:49;;;;;;;3.60;1.40;;;;;;;;;;5073480;28;20479;-65
2024/02/04 11:42:16;;;;;;;3.87;1.83;;;;;;;;;;5073592;28;20475;-65
2024/02/04 11:44:43;;;;;;;6.43;2.50;;;;;;;;;;5073246;28;20458;-65
2024/02/04 11:47:11;;;;;;;5.63;1.63;;;;;;;;;;5073445;28;20443;-65
2024/02/04 11:49:38;;;;;;;3.60;1.70;;;;;;;;;;5073090;28;20566;-65
2024/02/04 11:52:05;;;;;;;5.10;1.87;;;;;;;;;;5073247;28;20475;-65
2024/02/04 11:54:33;;;;;;;3.70;1.90;;;;;;;;;;5073123;28;20902;-65
2024/02/04 11:57:00;;;;;;;10.03;2.00;;;;;;;;;;5073133;28;20868;-65
2024/02/04 11:59:27;;;;;;;7.77;2.10;;;;;;;;;;5073213;28;20447;-65
2024/02/04 12:01:55;;;;;;;4.40;1.50;;;;;;;;;;5073066;28;20534;-65
2024/02/04 12:04:24;;;;;;;5.77;1.20;;;;;;;;;;5073083;28;20447;-65
2024/02/04 12:06:51;;;;;;;7.23;2.00;;;;;;;;;;5072921;28;20486;-63
2024/02/04 12:09:19;;;;;;;3.30;1.30;;;;;;;;;;5072707;28;20915;-63
2024/02/04 12:11:46;;;;;;;5.30;1.30;;;;;;;;;;5073079;28;20455;-63
2024/02/04 12:14:15;;;;;;;3.30;1.40;;;;;;;;;;5073009;28;20886;-63
2024/02/04 12:16:42;;;;;;;3.90;1.53;;;;;;;;;;5072993;28;20467;-63
2024/02/04 12:19:09;;;;;;;4.07;1.97;;;;;;;;;;5072944;28;20534;-65
2024/02/04 12:21:37;;;;;;;2.90;1.33;;;;;;;;;;5072673;28;20865;-65
2024/02/04 12:24:04;;;;;;;6.17;1.07;;;;;;;;;;5072715;28;20960;-65
2024/02/04 12:26:31;;;;;;;6.10;1.50;;;;;;;;;;5072700;28;20562;-65
2024/02/04 12:28:58;;;;;;;2.70;1.27;;;;;;;;;;5072704;28;20537;-65
2024/02/04 12:31:28;;;;;;;4.40;1.50;;;;;;;;;;5072846;28;20440;-65
2024/02/04 12:33:57;;;;;;;4.13;1.43;;;;;;;;;;5073231;28;20443;-65
2024/02/04 12:36:25;;;;;;;5.07;1.60;;;;;;;;;;5072634;28;20447;-65
2024/02/04 12:38:55;;;;;;;2.77;1.20;;;;;;;;;;5072815;28;20449;-63
2024/02/04 12:41:22;;;;;;;6.43;2.50;;;;;;;;;;5072698;28;20440;-65
2024/02/04 12:43:52;;;;;;;4.20;1.50;;;;;;;;;;5072738;28;20444;-65
2024/02/04 12:46:20;;;;;;;2.70;1.70;;;;;;;;;;5072727;28;21029;-65
2024/02/04 12:48:47;;;;;;;5.03;1.97;;;;;;;;;;5072487;28;20538;-63
2024/02/04 12:51:24;;;;;;;6.43;2.17;;;;;;;;;;5072587;28;20483;-64
2024/02/04 12:53:51;;;;;;;4.27;1.43;;;;;;;;;;5072805;28;20530;-65
2024/02/04 12:56:19;;;;;;;5.35;1.70;;;;;;;;;;5072401;28;20533;-65
2024/02/04 12:58:46;;;;;;;2.23;1.27;;;;;;;;;;5072529;28;20185;-65
2024/02/04 13:01:14;;;;;;;4.63;1.90;;;;;;;;;;5072348;28;20542;-65
2024/02/04 13:03:41;;;;;;;3.43;1.50;;;;;;;;;;5072635;28;20451;-65
2024/02/04 13:06:08;;;;;;;3.10;1.30;;;;;;;;;;5072555;28;20534;-65
2024/02/04 13:08:35;;;;;;;3.73;1.37;;;;;;;;;;5072472;28;20803;-65
2024/02/04 13:11:02;;;;;;;4.60;1.60;;;;;;;;;;5072287;28;20483;-65
2024/02/04 13:13:30;;;;;;;5.03;1.20;;;;;;;;;;5072392;28;20439;-65
2024/02/04 13:15:57;;;;;;;5.70;1.83;;;;;;;;;;5072205;28;20530;-65
2024/02/04 13:18:24;;;;;;;2.60;1.43;;;;;;;;;;5072247;28;20931;-66
2024/02/04 13:20:51;;;;;;;6.57;1.83;;;;;;;;;;5072521;28;20534;-65
2024/02/04 13:23:18;;;;;;;3.20;1.70;;;;;;;;;;5072301;28;20489;-65
2024/02/04 13:25:46;;;;;;;1.83;1.40;;;;;;;;;;5071896;28;20880;-65
2024/02/04 13:28:13;;;;;;;5.47;1.97;;;;;;;;;;5072056;28;20497;-65
2024/02/04 13:30:42;;;;;;;5.23;1.20;;;;;;;;;;5072171;28;20482;-65
2024/02/04 13:33:09;;;;;;;2.87;1.40;;;;;;;;;;5072737;28;20530;-65
2024/02/04 13:35:36;;;;;;;2.43;1.17;;;;;;;;;;5075855;28;20452;-65
2024/02/04 13:38:03;;;;;;;4.00;1.93;;;;;;;;;;5075665;28;21006;-63
2024/02/04 13:40:30;;;;;;;3.47;2.33;;;;;;;;;;5075689;28;20458;-63
2024/02/04 13:42:57;;;;;;;6.03;1.73;;;;;;;;;;5075567;28;20526;-62
2024/02/04 13:45:24;;;;;;;5.30;1.47;;;;;;;;;;5075646;28;20530;-63
2024/02/04 13:47:53;;;;;;;6.03;2.00;;;;;;;;;;5075654;28;20521;-63
2024/02/04 13:50:20;;;;;;;5.47;1.80;;;;;;;;;;5075366;28;21071;-63
2024/02/04 13:52:47;;;;;;;1.73;1.47;;;;;;;;;;5075461;28;20486;-63
2024/02/04 13:55:14;;;;;;;6.67;2.30;;;;;;;;;;5075313;28;20530;-65
2024/02/04 13:57:41;;;;;;;5.23;1.37;;;;;;;;;;5075370;28;20443;-65
2024/02/04 14:00:08;;;;;;;5.37;1.70;;;;;;;;;;5075478;28;20516;-65
2024/02/04 14:02:35;;;;;;;5.77;2.17;;;;;;;;;;5075414;28;20534;-65
2024/02/04 14:05:03;;;;;;;3.40;1.53;;;;;;;;;;5075299;28;20475;-65
2024/02/04 14:07:30;;;;;;;7.77;3.70;;;;;;;;;;5075276;28;20443;-65
2024/02/04 14:09:57;;;;;;;5.23;3.00;;;;;;;;;;5074963;28;20471;-65
2024/02/04 14:12:24;;;;;;;6.73;2.63;;;;;;;;;;5075267;28;20447;-65
2024/02/04 14:14:51;;;;;;;3.43;1.70;;;;;;;;;;5075025;28;20535;-65
2024/02/04 14:17:19;;;;;;;5.97;2.77;;;;;;;;;;5075230;28;21008;-65
2024/02/04 14:19:49;;;;;;;3.70;1.80;;;;;;;;;;5075037;28;20792;-65
2024/02/04 14:22:17;;;;;;;6.03;2.13;;;;;;;;;;5075284;28;20443;-65
2024/02/04 14:24:45;;;;;;;9.90;2.13;;;;;;;;;;5074731;28;20447;-65
2024/02/04 14:27:12;;;;;;;5.23;2.43;;;;;;;;;;5074645;28;20528;-65
2024/02/04 14:29:39;;;;;;;7.80;2.47;;;;;;;;;;5074954;28;20443;-65
2024/02/04 14:32:06;;;;;;;5.47;2.97;;;;;;;;;;5074706;28;20531;-65
2024/02/04 14:34:33;;;;;;;2.77;1.97;;;;;;;;;;5074848;28;20501;-65
2024/02/04 14:37:00;;;;;;;8.13;1.97;;;;;;;;;;5074608;28;20534;-65
2024/02/04 14:39:31;;;;;;;10.90;2.20;;;;;;;;;;5074818;28;20501;-65
2024/02/04 14:41:58;;;;;;;10.03;2.67;;;;;;;;;;5074743;28;20444;-65
2024/02/04 14:44:25;;;;;;;6.83;2.30;;;;;;;;;;5074632;28;20538;-65
2024/02/04 14:46:52;;;;;;;4.20;2.03;;;;;;;;;;5074558;28;20532;-65